sensor_id;sensor_type;location;lat;lon;timestamp;pressure;altitude;pressure_sealevel;temperature;humidity
36380;BME280;22411;53.016;18.632;2023-01-28T00:02:08;101696.28;;;-1.59;100.00
36380;BME280;22411;53.016;18.632;2023-01-28T00:04:33;101698.00;;;-1.58;100.00
36380;BME280;22411;53.016;18.632;2023-01-28T00:07:00;101697.97;;;-1.64;100.00
36380;BME280;22411;53.016;18.632;2023-01-28T00:09:26;101706.47;;;-1.62;100.00
36380;BME280;22411;53.016;18.632;2023-01-28T00:11:52;101697.16;;;-1.63;100.00
36380;BME280;22411;53.016;18.632;2023-01-28T00:14:18;101696.31;;;-1.66;100.00
36380;BME280;22411;53.016;18.632;2023-01-28T00:16:44;101697.16;;;-1.66;100.00
36380;BME280;22411;53.016;18.632;2023-01-28T00:19:10;101689.53;;;-1.63;100.00
36380;BME280;22411;53.016;18.632;2023-01-28T00:21:37;101682.72;;;-1.64;100.00
36380;BME280;22411;53.016;18.632;2023-01-28T00:24:03;101683.59;;;-1.65;100.00
36380;BME280;22411;53.016;18.632;2023-01-28T00:26:29;101675.94;;;-1.65;100.00
36380;BME280;22411;53.016;18.632;2023-01-28T00:28:55;101673.41;;;-1.66;100.00
36380;BME280;22411;53.016;18.632;2023-01-28T00:31:23;101667.50;;;-1.68;100.00
36380;BME280;22411;53.016;18.632;2023-01-28T00:33:51;101664.94;;;-1.70;100.00
36380;BME280;22411;53.016;18.632;2023-01-28T00:36:19;101666.63;;;-1.69;100.00
36380;BME280;22411;53.016;18.632;2023-01-28T00:38:49;101666.63;;;-1.66;100.00
36380;BME280;22411;53.016;18.632;2023-01-28T00:41:17;101665.78;;;-1.69;100.00
36380;BME280;22411;53.016;18.632;2023-01-28T00:43:47;101669.16;;;-1.70;100.00
36380;BME280;22411;53.016;18.632;2023-01-28T00:46:14;101663.25;;;-1.74;100.00
36380;BME280;22411;53.016;18.632;2023-01-28T00:48:41;101659.84;;;-1.76;100.00
36380;BME280;22411;53.016;18.632;2023-01-28T00:51:09;101664.94;;;-1.73;100.00
36380;BME280;22411;53.016;18.632;2023-01-28T00:53:36;101663.25;;;-1.72;100.00
36380;BME280;22411;53.016;18.632;2023-01-28T00:56:04;101664.09;;;-1.72;100.00
36380;BME280;22411;53.016;18.632;2023-01-28T00:58:31;101668.31;;;-1.71;100.00
36380;BME280;22411;53.016;18.632;2023-01-28T01:01:12;101668.34;;;-1.66;100.00
36380;BME280;22411;53.016;18.632;2023-01-28T01:03:38;101670.00;;;-1.64;100.00
36380;BME280;22411;53.016;18.632;2023-01-28T01:06:06;101675.97;;;-1.63;100.00
36380;BME280;22411;53.016;18.632;2023-01-28T01:08:32;101673.44;;;-1.62;100.00
36380;BME280;22411;53.016;18.632;2023-01-28T01:11:06;101675.09;;;-1.59;100.00
36380;BME280;22411;53.016;18.632;2023-01-28T01:13:33;101678.50;;;-1.60;100.00
36380;BME280;22411;53.016;18.632;2023-01-28T01:16:10;101673.44;;;-1.57;100.00
36380;BME280;22411;53.016;18.632;2023-01-28T01:18:36;101675.13;;;-1.58;100.00
36380;BME280;22411;53.016;18.632;2023-01-28T01:21:15;101673.41;;;-1.60;100.00
36380;BME280;22411;53.016;18.632;2023-01-28T01:23:42;101675.94;;;-1.59;100.00
36380;BME280;22411;53.016;18.632;2023-01-28T01:26:09;101677.66;;;-1.61;100.00
36380;BME280;22411;53.016;18.632;2023-01-28T01:28:35;101676.81;;;-1.58;100.00
36380;BME280;22411;53.016;18.632;2023-01-28T01:31:16;101680.22;;;-1.58;100.00
36380;BME280;22411;53.016;18.632;2023-01-28T01:33:43;101682.75;;;-1.58;100.00
36380;BME280;22411;53.016;18.632;2023-01-28T01:36:11;101682.75;;;-1.54;100.00
36380;BME280;22411;53.016;18.632;2023-01-28T01:38:37;101676.81;;;-1.50;100.00
36380;BME280;22411;53.016;18.632;2023-01-28T01:41:05;101675.97;;;-1.52;100.00
36380;BME280;22411;53.016;18.632;2023-01-28T01:43:53;101684.44;;;-1.53;100.00
36380;BME280;22411;53.016;18.632;2023-01-28T01:46:24;101677.66;;;-1.51;100.00
36380;BME280;22411;53.016;18.632;2023-01-28T01:48:54;101677.66;;;-1.51;100.00
36380;BME280;22411;53.016;18.632;2023-01-28T01:51:25;101670.03;;;-1.51;100.00
36380;BME280;22411;53.016;18.632;2023-01-28T01:53:53;101674.28;;;-1.52;100.00
36380;BME280;22411;53.016;18.632;2023-01-28T01:56:23;101668.31;;;-1.49;100.00
36380;BME280;22411;53.016;18.632;2023-01-28T01:58:54;101666.63;;;-1.55;100.00
36380;BME280;22411;53.016;18.632;2023-01-28T02:01:23;101672.56;;;-1.54;100.00
36380;BME280;22411;53.016;18.632;2023-01-28T02:04:09;101670.88;;;-1.54;100.00
36380;BME280;22411;53.016;18.632;2023-01-28T02:06:38;101672.56;;;-1.54;100.00
36380;BME280;22411;53.016;18.632;2023-01-28T02:09:20;101675.09;;;-1.54;100.00
36380;BME280;22411;53.016;18.632;2023-01-28T02:11:47;101674.28;;;-1.56;100.00
36380;BME280;22411;53.016;18.632;2023-01-28T02:14:13;101672.56;;;-1.61;100.00
36380;BME280;22411;53.016;18.632;2023-01-28T02:16:39;101677.63;;;-1.64;100.00
36380;BME280;22411;53.016;18.632;2023-01-28T02:19:06;101665.81;;;-1.63;100.00
36380;BME280;22411;53.016;18.632;2023-01-28T02:21:47;101670.00;;;-1.64;100.00
36380;BME280;22411;53.016;18.632;2023-01-28T02:24:53;101669.19;;;-1.63;100.00
36380;BME280;22411;53.016;18.632;2023-01-28T02:30:21;101663.25;;;-1.65;100.00
36380;BME280;22411;53.016;18.632;2023-01-28T02:32:55;101667.47;;;-1.59;100.00
36380;BME280;22411;53.016;18.632;2023-01-28T02:35:28;101663.25;;;-1.62;100.00
36380;BME280;22411;53.016;18.632;2023-01-28T02:38:13;101663.25;;;-1.57;100.00
36380;BME280;22411;53.016;18.632;2023-01-28T02:40:44;101673.41;;;-1.54;100.00
36380;BME280;22411;53.016;18.632;2023-01-28T02:43:42;101675.97;;;-1.55;100.00
36380;BME280;22411;53.016;18.632;2023-01-28T02:49:10;101660.72;;;-1.57;100.00
36380;BME280;22411;53.016;18.632;2023-01-28T02:54:21;101664.94;;;-1.53;100.00
36380;BME280;22411;53.016;18.632;2023-01-28T02:57:03;101662.41;;;-1.50;100.00
36380;BME280;22411;53.016;18.632;2023-01-28T03:04:55;101666.66;;;-1.47;100.00
36380;BME280;22411;53.016;18.632;2023-01-28T03:07:26;101669.16;;;-1.49;100.00
36380;BME280;22411;53.016;18.632;2023-01-28T03:09:55;101668.31;;;-1.48;100.00
36380;BME280;22411;53.016;18.632;2023-01-28T03:12:27;101669.19;;;-1.46;100.00
36380;BME280;22411;53.016;18.632;2023-01-28T03:15:18;101662.38;;;-1.44;100.00
36380;BME280;22411;53.016;18.632;2023-01-28T03:18:25;101664.09;;;-1.43;100.00
36380;BME280;22411;53.016;18.632;2023-01-28T03:21:19;101669.19;;;-1.44;100.00
36380;BME280;22411;53.016;18.632;2023-01-28T03:24:10;101670.88;;;-1.48;100.00
36380;BME280;22411;53.016;18.632;2023-01-28T03:30:06;101672.56;;;-1.44;100.00
36380;BME280;22411;53.016;18.632;2023-01-28T03:32:53;101674.25;;;-1.44;100.00
36380;BME280;22411;53.016;18.632;2023-01-28T03:35:39;101667.50;;;-1.45;100.00
36380;BME280;22411;53.016;18.632;2023-01-28T03:38:24;101669.19;;;-1.41;100.00
36380;BME280;22411;53.016;18.632;2023-01-28T03:41:01;101676.81;;;-1.40;100.00
36380;BME280;22411;53.016;18.632;2023-01-28T03:43:29;101666.63;;;-1.40;100.00
36380;BME280;22411;53.016;18.632;2023-01-28T03:45:55;101673.41;;;-1.39;100.00
36380;BME280;22411;53.016;18.632;2023-01-28T03:48:24;101677.66;;;-1.39;100.00
36380;BME280;22411;53.016;18.632;2023-01-28T03:50:51;101683.59;;;-1.39;100.00
36380;BME280;22411;53.016;18.632;2023-01-28T03:53:18;101685.28;;;-1.36;100.00
36380;BME280;22411;53.016;18.632;2023-01-28T03:55:47;101687.00;;;-1.37;100.00
36380;BME280;22411;53.016;18.632;2023-01-28T03:58:14;101688.69;;;-1.36;100.00
36380;BME280;22411;53.016;18.632;2023-01-28T04:00:40;101687.81;;;-1.33;100.00
36380;BME280;22411;53.016;18.632;2023-01-28T04:03:16;101689.53;;;-1.35;100.00
36380;BME280;22411;53.016;18.632;2023-01-28T04:05:59;101686.13;;;-1.37;100.00
36380;BME280;22411;53.016;18.632;2023-01-28T04:08:26;101687.84;;;-1.36;100.00
36380;BME280;22411;53.016;18.632;2023-01-28T04:10:52;101689.53;;;-1.37;100.00
36380;BME280;22411;53.016;18.632;2023-01-28T04:13:18;101698.84;;;-1.40;100.00
36380;BME280;22411;53.016;18.632;2023-01-28T04:15:45;101690.38;;;-1.38;100.00
36380;BME280;22411;53.016;18.632;2023-01-28T04:18:11;101696.31;;;-1.39;100.00
36380;BME280;22411;53.016;18.632;2023-01-28T04:20:37;101690.38;;;-1.39;100.00
36380;BME280;22411;53.016;18.632;2023-01-28T04:23:05;101695.47;;;-1.42;100.00
36380;BME280;22411;53.016;18.632;2023-01-28T04:25:33;101696.31;;;-1.39;100.00
36380;BME280;22411;53.016;18.632;2023-01-28T04:27:59;101698.00;;;-1.41;100.00
36380;BME280;22411;53.016;18.632;2023-01-28T04:30:28;101700.56;;;-1.41;100.00
36380;BME280;22411;53.016;18.632;2023-01-28T04:32:54;101693.75;;;-1.39;100.00
36380;BME280;22411;53.016;18.632;2023-01-28T04:35:20;101697.16;;;-1.37;100.00
36380;BME280;22411;53.016;18.632;2023-01-28T04:37:46;101696.28;;;-1.37;100.00
36380;BME280;22411;53.016;18.632;2023-01-28T04:40:12;101696.31;;;-1.39;100.00
36380;BME280;22411;53.016;18.632;2023-01-28T04:42:38;101685.31;;;-1.42;100.00
36380;BME280;22411;53.016;18.632;2023-01-28T04:45:04;101687.84;;;-1.42;100.00
36380;BME280;22411;53.016;18.632;2023-01-28T04:47:31;101686.97;;;-1.43;100.00
36380;BME280;22411;53.016;18.632;2023-01-28T04:49:56;101686.13;;;-1.43;100.00
36380;BME280;22411;53.016;18.632;2023-01-28T04:52:22;101684.44;;;-1.38;100.00
36380;BME280;22411;53.016;18.632;2023-01-28T04:54:48;101689.50;;;-1.38;100.00
36380;BME280;22411;53.016;18.632;2023-01-28T04:57:14;101691.22;;;-1.42;100.00
36380;BME280;22411;53.016;18.632;2023-01-28T04:59:41;101693.78;;;-1.40;100.00
36380;BME280;22411;53.016;18.632;2023-01-28T05:02:07;101692.91;;;-1.44;100.00
36380;BME280;22411;53.016;18.632;2023-01-28T05:04:33;101696.31;;;-1.45;100.00
36380;BME280;22411;53.016;18.632;2023-01-28T05:07:00;101693.75;;;-1.45;100.00
36380;BME280;22411;53.016;18.632;2023-01-28T05:09:26;101696.31;;;-1.39;100.00
36380;BME280;22411;53.016;18.632;2023-01-28T05:11:52;101694.63;;;-1.41;100.00
36380;BME280;22411;53.016;18.632;2023-01-28T05:14:18;101697.16;;;-1.43;100.00
36380;BME280;22411;53.016;18.632;2023-01-28T05:16:44;101705.63;;;-1.44;100.00
36380;BME280;22411;53.016;18.632;2023-01-28T05:19:13;101709.88;;;-1.40;100.00
36380;BME280;22411;53.016;18.632;2023-01-28T05:21:39;101710.72;;;-1.39;100.00
36380;BME280;22411;53.016;18.632;2023-01-28T05:24:05;101712.41;;;-1.40;100.00
36380;BME280;22411;53.016;18.632;2023-01-28T05:26:32;101716.66;;;-1.45;100.00
36380;BME280;22411;53.016;18.632;2023-01-28T05:28:58;101709.88;;;-1.46;100.00
36380;BME280;22411;53.016;18.632;2023-01-28T05:31:24;101701.41;;;-1.46;100.00
36380;BME280;22411;53.016;18.632;2023-01-28T05:33:50;101707.34;;;-1.47;100.00
36380;BME280;22411;53.016;18.632;2023-01-28T05:36:18;101712.41;;;-1.46;100.00
36380;BME280;22411;53.016;18.632;2023-01-28T05:38:44;101712.44;;;-1.47;100.00
36380;BME280;22411;53.016;18.632;2023-01-28T05:41:10;101716.66;;;-1.49;100.00
36380;BME280;22411;53.016;18.632;2023-01-28T05:43:35;101720.03;;;-1.50;100.00
36380;BME280;22411;53.016;18.632;2023-01-28T05:46:02;101718.34;;;-1.50;100.00
36380;BME280;22411;53.016;18.632;2023-01-28T05:48:28;101707.34;;;-1.52;100.00
36380;BME280;22411;53.016;18.632;2023-01-28T05:50:54;101715.81;;;-1.50;100.00
36380;BME280;22411;53.016;18.632;2023-01-28T05:53:20;101719.19;;;-1.48;100.00
36380;BME280;22411;53.016;18.632;2023-01-28T05:55:47;101721.72;;;-1.48;100.00
36380;BME280;22411;53.016;18.632;2023-01-28T05:58:13;101724.28;;;-1.49;100.00
36380;BME280;22411;53.016;18.632;2023-01-28T06:00:39;101722.59;;;-1.50;100.00
36380;BME280;22411;53.016;18.632;2023-01-28T06:03:05;101720.06;;;-1.47;100.00
36380;BME280;22411;53.016;18.632;2023-01-28T06:05:31;101724.25;;;-1.48;100.00
36380;BME280;22411;53.016;18.632;2023-01-28T06:07:57;101722.56;;;-1.49;100.00
36380;BME280;22411;53.016;18.632;2023-01-28T06:10:23;101715.81;;;-1.42;100.00
36380;BME280;22411;53.016;18.632;2023-01-28T06:12:49;101721.75;;;-1.46;100.00
36380;BME280;22411;53.016;18.632;2023-01-28T06:15:15;101731.06;;;-1.50;100.00
36380;BME280;22411;53.016;18.632;2023-01-28T06:17:41;101725.13;;;-1.52;100.00
36380;BME280;22411;53.016;18.632;2023-01-28T06:20:08;101728.53;;;-1.51;100.00
36380;BME280;22411;53.016;18.632;2023-01-28T06:22:34;101737.00;;;-1.49;100.00
36380;BME280;22411;53.016;18.632;2023-01-28T06:25:00;101731.91;;;-1.51;100.00
36380;BME280;22411;53.016;18.632;2023-01-28T06:27:26;101737.84;;;-1.52;100.00
36380;BME280;22411;53.016;18.632;2023-01-28T06:29:52;101739.53;;;-1.57;100.00
36380;BME280;22411;53.016;18.632;2023-01-28T06:32:18;101741.25;;;-1.58;100.00
36380;BME280;22411;53.016;18.632;2023-01-28T06:34:44;101746.31;;;-1.56;100.00
36380;BME280;22411;53.016;18.632;2023-01-28T06:37:13;101742.91;;;-1.61;100.00
36380;BME280;22411;53.016;18.632;2023-01-28T06:39:40;101742.94;;;-1.58;100.00
36380;BME280;22411;53.016;18.632;2023-01-28T06:42:06;101742.91;;;-1.53;100.00
36380;BME280;22411;53.016;18.632;2023-01-28T06:44:32;101748.88;;;-1.51;100.00
36380;BME280;22411;53.016;18.632;2023-01-28T06:46:57;101754.81;;;-1.51;100.00
36380;BME280;22411;53.016;18.632;2023-01-28T06:49:24;101753.94;;;-1.53;100.00
36380;BME280;22411;53.016;18.632;2023-01-28T06:51:49;101758.19;;;-1.55;100.00
36380;BME280;22411;53.016;18.632;2023-01-28T06:54:16;101754.78;;;-1.55;100.00
36380;BME280;22411;53.016;18.632;2023-01-28T06:56:42;101756.47;;;-1.54;100.00
36380;BME280;22411;53.016;18.632;2023-01-28T06:59:09;101750.56;;;-1.52;100.00
36380;BME280;22411;53.016;18.632;2023-01-28T07:01:34;101753.13;;;-1.52;100.00
36380;BME280;22411;53.016;18.632;2023-01-28T07:04:01;101754.78;;;-1.49;100.00
36380;BME280;22411;53.016;18.632;2023-01-28T07:06:27;101754.81;;;-1.42;100.00
36380;BME280;22411;53.016;18.632;2023-01-28T07:08:53;101752.25;;;-1.43;100.00
36380;BME280;22411;53.016;18.632;2023-01-28T07:11:19;101756.50;;;-1.42;100.00
36380;BME280;22411;53.016;18.632;2023-01-28T07:13:45;101754.81;;;-1.40;100.00
36380;BME280;22411;53.016;18.632;2023-01-28T07:16:12;101764.13;;;-1.41;100.00
36380;BME280;22411;53.016;18.632;2023-01-28T07:18:38;101760.72;;;-1.38;100.00
36380;BME280;22411;53.016;18.632;2023-01-28T07:21:04;101755.66;;;-1.40;100.00
36380;BME280;22411;53.016;18.632;2023-01-28T07:23:30;101764.13;;;-1.39;100.00
36380;BME280;22411;53.016;18.632;2023-01-28T07:26:03;101762.44;;;-1.39;100.00
36380;BME280;22411;53.016;18.632;2023-01-28T07:28:29;101766.69;;;-1.41;100.00
36380;BME280;22411;53.016;18.632;2023-01-28T07:30:56;101770.06;;;-1.37;100.00
36380;BME280;22411;53.016;18.632;2023-01-28T07:33:22;101769.22;;;-1.39;100.00
36380;BME280;22411;53.016;18.632;2023-01-28T07:35:48;101772.59;;;-1.39;100.00
36380;BME280;22411;53.016;18.632;2023-01-28T07:38:14;101776.00;;;-1.35;100.00
36380;BME280;22411;53.016;18.632;2023-01-28T07:40:40;101776.84;;;-1.33;100.00
36380;BME280;22411;53.016;18.632;2023-01-28T07:43:08;101769.25;;;-1.32;100.00
36380;BME280;22411;53.016;18.632;2023-01-28T07:45:34;101768.38;;;-1.29;100.00
36380;BME280;22411;53.016;18.632;2023-01-28T07:48:05;101776.88;;;-1.21;100.00
36380;BME280;22411;53.016;18.632;2023-01-28T07:50:32;101776.88;;;-1.21;100.00
36380;BME280;22411;53.016;18.632;2023-01-28T07:53:02;101776.84;;;-1.22;100.00
36380;BME280;22411;53.016;18.632;2023-01-28T07:55:29;101780.25;;;-1.23;100.00
36380;BME280;22411;53.016;18.632;2023-01-28T07:57:57;101770.09;;;-1.20;100.00
36380;BME280;22411;53.016;18.632;2023-01-28T08:00:26;101768.41;;;-1.26;100.00
36380;BME280;22411;53.016;18.632;2023-01-28T08:03:00;101763.28;;;-1.24;100.00
36380;BME280;22411;53.016;18.632;2023-01-28T08:05:40;101761.59;;;-1.19;100.00
36380;BME280;22411;53.016;18.632;2023-01-28T08:08:08;101766.69;;;-1.15;100.00
36380;BME280;22411;53.016;18.632;2023-01-28T08:10:35;101767.53;;;-1.10;100.00
36380;BME280;22411;53.016;18.632;2023-01-28T08:13:03;101770.91;;;-1.08;100.00
36380;BME280;22411;53.016;18.632;2023-01-28T08:15:29;101772.63;;;-1.02;100.00
36380;BME280;22411;53.016;18.632;2023-01-28T08:17:57;101769.22;;;-1.01;100.00
36380;BME280;22411;53.016;18.632;2023-01-28T08:20:27;101771.78;;;-0.99;100.00
36380;BME280;22411;53.016;18.632;2023-01-28T08:23:05;101775.16;;;-0.96;100.00
36380;BME280;22411;53.016;18.632;2023-01-28T08:25:32;101775.16;;;-0.97;100.00
36380;BME280;22411;53.016;18.632;2023-01-28T08:27:58;101775.16;;;-0.96;100.00
36380;BME280;22411;53.016;18.632;2023-01-28T08:30:24;101782.78;;;-0.96;100.00
36380;BME280;22411;53.016;18.632;2023-01-28T08:32:50;101781.94;;;-0.98;100.00
36380;BME280;22411;53.016;18.632;2023-01-28T08:35:16;101774.31;;;-0.98;100.00
36380;BME280;22411;53.016;18.632;2023-01-28T08:37:42;101782.78;;;-0.91;100.00
36380;BME280;22411;53.016;18.632;2023-01-28T08:40:09;101783.66;;;-0.92;100.00
36380;BME280;22411;53.016;18.632;2023-01-28T08:42:39;101788.75;;;-0.89;100.00
36380;BME280;22411;53.016;18.632;2023-01-28T08:45:05;101787.03;;;-0.86;100.00
36380;BME280;22411;53.016;18.632;2023-01-28T08:47:32;101789.59;;;-0.84;100.00
36380;BME280;22411;53.016;18.632;2023-01-28T08:49:58;101795.53;;;-0.84;100.00
36380;BME280;22411;53.016;18.632;2023-01-28T08:52:25;101794.66;;;-0.81;100.00
36380;BME280;22411;53.016;18.632;2023-01-28T08:54:50;101784.50;;;-0.78;100.00
36380;BME280;22411;53.016;18.632;2023-01-28T08:57:17;101789.56;;;-0.80;100.00
36380;BME280;22411;53.016;18.632;2023-01-28T08:59:42;101787.88;;;-0.76;100.00
36380;BME280;22411;53.016;18.632;2023-01-28T09:02:14;101789.56;;;-0.80;100.00
36380;BME280;22411;53.016;18.632;2023-01-28T09:04:41;101789.59;;;-0.78;100.00
36380;BME280;22411;53.016;18.632;2023-01-28T09:07:10;101783.63;;;-0.80;100.00
36380;BME280;22411;53.016;18.632;2023-01-28T09:09:36;101783.66;;;-0.78;100.00
36380;BME280;22411;53.016;18.632;2023-01-28T09:12:02;101781.91;;;-0.80;100.00
36380;BME280;22411;53.016;18.632;2023-01-28T09:14:30;101781.94;;;-0.73;100.00
36380;BME280;22411;53.016;18.632;2023-01-28T09:16:56;101788.72;;;-0.66;100.00
36380;BME280;22411;53.016;18.632;2023-01-28T09:19:22;101781.06;;;-0.65;100.00
36380;BME280;22411;53.016;18.632;2023-01-28T09:21:48;101784.47;;;-0.66;100.00
36380;BME280;22411;53.016;18.632;2023-01-28T09:24:14;101784.44;;;-0.64;100.00
36380;BME280;22411;53.016;18.632;2023-01-28T09:26:40;101781.91;;;-0.66;100.00
36380;BME280;22411;53.016;18.632;2023-01-28T09:29:06;101787.84;;;-0.59;100.00
36380;BME280;22411;53.016;18.632;2023-01-28T09:31:32;101778.50;;;-0.60;100.00
36380;BME280;22411;53.016;18.632;2023-01-28T09:33:58;101781.88;;;-0.58;100.00
36380;BME280;22411;53.016;18.632;2023-01-28T09:36:27;101779.34;;;-0.50;100.00
36380;BME280;22411;53.016;18.632;2023-01-28T09:38:53;101781.03;;;-0.42;100.00
36380;BME280;22411;53.016;18.632;2023-01-28T09:41:28;101773.31;;;-0.27;100.00
36380;BME280;22411;53.016;18.632;2023-01-28T09:46:39;101782.63;;;-0.15;100.00
36380;BME280;22411;53.016;18.632;2023-01-28T09:49:41;101774.97;;;-0.18;100.00
36380;BME280;22411;53.016;18.632;2023-01-28T09:52:14;101775.00;;;-0.22;100.00
36380;BME280;22411;53.016;18.632;2023-01-28T09:55:21;101777.53;;;-0.19;100.00
36380;BME280;22411;53.016;18.632;2023-01-28T09:57:53;101776.66;;;-0.17;100.00
36380;BME280;22411;53.016;18.632;2023-01-28T10:00:22;101775.00;;;-0.19;100.00
36380;BME280;22411;53.016;18.632;2023-01-28T10:03:12;101777.53;;;-0.13;100.00
36380;BME280;22411;53.016;18.632;2023-01-28T10:08:27;101769.00;;;-0.05;100.00
36380;BME280;22411;53.016;18.632;2023-01-28T10:11:25;101769.84;;;-0.07;100.00
36380;BME280;22411;53.016;18.632;2023-01-28T10:17:04;101763.06;;;-0.08;100.00
36380;BME280;22411;53.016;18.632;2023-01-28T10:19:39;101776.66;;;-0.17;100.00
36380;BME280;22411;53.016;18.632;2023-01-28T10:22:26;101778.41;;;-0.25;100.00
36380;BME280;22411;53.016;18.632;2023-01-28T10:24:57;101780.94;;;-0.22;100.00
36380;BME280;22411;53.016;18.632;2023-01-28T10:27:35;101783.50;;;-0.28;100.00
36380;BME280;22411;53.016;18.632;2023-01-28T10:30:31;101773.34;;;-0.30;100.00
36380;BME280;22411;53.016;18.632;2023-01-28T10:33:03;101780.94;;;-0.27;100.00
36380;BME280;22411;53.016;18.632;2023-01-28T10:35:31;101786.88;;;-0.23;100.00
36380;BME280;22411;53.016;18.632;2023-01-28T10:38:01;101783.47;;;-0.22;100.00
36380;BME280;22411;53.016;18.632;2023-01-28T10:40:33;101776.69;;;-0.21;100.00
36380;BME280;22411;53.016;18.632;2023-01-28T10:42:59;101785.19;;;-0.22;100.00
36380;BME280;22411;53.016;18.632;2023-01-28T10:45:33;101775.88;;;-0.30;100.00
36380;BME280;22411;53.016;18.632;2023-01-28T10:48:08;101772.47;;;-0.25;100.00
36380;BME280;22411;53.016;18.632;2023-01-28T10:50:49;101775.03;;;-0.29;100.00
36380;BME280;22411;53.016;18.632;2023-01-28T10:53:15;101779.28;;;-0.32;100.00
36380;BME280;22411;53.016;18.632;2023-01-28T10:55:55;101776.78;;;-0.44;100.00
36380;BME280;22411;53.016;18.632;2023-01-28T10:58:24;101774.22;;;-0.49;100.00
36380;BME280;22411;53.016;18.632;2023-01-28T11:00:53;101781.88;;;-0.41;100.00
36380;BME280;22411;53.016;18.632;2023-01-28T11:03:22;101783.56;;;-0.36;100.00
36380;BME280;22411;53.016;18.632;2023-01-28T11:05:54;101786.94;;;-0.40;100.00
36380;BME280;22411;53.016;18.632;2023-01-28T11:08:21;101780.16;;;-0.41;100.00
36380;BME280;22411;53.016;18.632;2023-01-28T11:10:48;101777.59;;;-0.38;100.00
36380;BME280;22411;53.016;18.632;2023-01-28T11:13:28;101773.34;;;-0.31;100.00
36380;BME280;22411;53.016;18.632;2023-01-28T11:16:03;101778.41;;;-0.25;100.00
36380;BME280;22411;53.016;18.632;2023-01-28T11:18:34;101763.97;;;-0.28;100.00
36380;BME280;22411;53.016;18.632;2023-01-28T11:21:04;101765.66;;;-0.22;100.00
36380;BME280;22411;53.016;18.632;2023-01-28T11:23:35;101766.50;;;-0.21;100.00
36380;BME280;22411;53.016;18.632;2023-01-28T11:26:06;101754.59;;;-0.18;100.00
36380;BME280;22411;53.016;18.632;2023-01-28T11:28:34;101758.81;;;-0.11;100.00
36380;BME280;22411;53.016;18.632;2023-01-28T11:31:05;101756.25;;;-0.06;100.00
36380;BME280;22411;53.016;18.632;2023-01-28T11:33:36;101757.94;;;-0.04;100.00
36380;BME280;22411;53.016;18.632;2023-01-28T11:36:14;101751.16;;;-0.08;100.00
36380;BME280;22411;53.016;18.632;2023-01-28T11:38:54;101756.25;;;-0.11;100.00
36380;BME280;22411;53.016;18.632;2023-01-28T11:41:33;101756.28;;;-0.09;100.00
36380;BME280;22411;53.016;18.632;2023-01-28T11:49:56;101753.72;;;-0.12;100.00
36380;BME280;22411;53.016;18.632;2023-01-28T11:52:35;101746.97;;;-0.24;100.00
36380;BME280;22411;53.016;18.632;2023-01-28T11:55:32;101741.88;;;-0.27;100.00
36380;BME280;22411;53.016;18.632;2023-01-28T12:01:46;101735.06;;;-0.19;100.00
36380;BME280;22411;53.016;18.632;2023-01-28T12:10:25;101738.44;;;-0.17;100.00
36380;BME280;22411;53.016;18.632;2023-01-28T12:13:08;101730.00;;;-0.23;100.00
36380;BME280;22411;53.016;18.632;2023-01-28T12:15:54;101729.16;;;-0.25;100.00
36380;BME280;22411;53.016;18.632;2023-01-28T12:21:26;101731.69;;;-0.27;100.00
36380;BME280;22411;53.016;18.632;2023-01-28T12:24:05;101730.00;;;-0.25;100.00
36380;BME280;22411;53.016;18.632;2023-01-28T12:26:45;101733.38;;;-0.23;100.00
36380;BME280;22411;53.016;18.632;2023-01-28T12:32:37;101734.22;;;-0.15;100.00
36380;BME280;22411;53.016;18.632;2023-01-28T12:35:38;101728.28;;;-0.20;100.00
36380;BME280;22411;53.016;18.632;2023-01-28T12:38:15;101729.13;;;-0.22;100.00
36380;BME280;22411;53.016;18.632;2023-01-28T12:41:07;101727.44;;;-0.23;100.00
36380;BME280;22411;53.016;18.632;2023-01-28T12:43:49;101725.72;;;-0.23;100.00
36380;BME280;22411;53.016;18.632;2023-01-28T12:49:10;101721.53;;;-0.33;100.00
36380;BME280;22411;53.016;18.632;2023-01-28T12:57:22;101724.06;;;-0.29;100.00
36380;BME280;22411;53.016;18.632;2023-01-28T13:02:43;101721.53;;;-0.32;100.00
36380;BME280;22411;53.016;18.632;2023-01-28T13:05:15;101734.28;;;-0.33;100.00
36380;BME280;22411;53.016;18.632;2023-01-28T13:07:56;101731.75;;;-0.32;100.00
36380;BME280;22411;53.016;18.632;2023-01-28T13:10:44;101724.09;;;-0.32;100.00
36380;BME280;22411;53.016;18.632;2023-01-28T13:13:33;101730.88;;;-0.29;100.00
36380;BME280;22411;53.016;18.632;2023-01-28T13:16:02;101726.63;;;-0.33;100.00
36380;BME280;22411;53.016;18.632;2023-01-28T13:18:43;101732.59;;;-0.36;100.00
36380;BME280;22411;53.016;18.632;2023-01-28T13:23:42;101725.75;;;-0.28;100.00
36380;BME280;22411;53.016;18.632;2023-01-28T13:28:47;101719.00;;;-0.32;100.00
36380;BME280;22411;53.016;18.632;2023-01-28T13:31:15;101718.97;;;-0.30;100.00
36380;BME280;22411;53.016;18.632;2023-01-28T13:33:59;101719.00;;;-0.35;100.00
36380;BME280;22411;53.016;18.632;2023-01-28T13:36:52;101720.72;;;-0.37;100.00
36380;BME280;22411;53.016;18.632;2023-01-28T13:39:23;101713.91;;;-0.39;100.00
36380;BME280;22411;53.016;18.632;2023-01-28T13:42:18;101715.66;;;-0.49;100.00
36380;BME280;22411;53.016;18.632;2023-01-28T13:44:45;101716.50;;;-0.47;100.00
36380;BME280;22411;53.016;18.632;2023-01-28T13:47:19;101728.38;;;-0.41;100.00
36380;BME280;22411;53.016;18.632;2023-01-28T13:49:48;101722.41;;;-0.43;100.00
36380;BME280;22411;53.016;18.632;2023-01-28T14:17:00;101741.16;;;-0.64;100.00
36380;BME280;22411;53.016;18.632;2023-01-28T14:19:34;101744.59;;;-0.73;100.00